< < Back
Terminal Aerodrome Forecast


Current Version              Previous Versions:   1  2  3  4  5  6  7  8  9  

Terminal Aerodrome Forecast

188
FTUS42 KGSP 211400 AAA
TAFCLT
TAF AMD
KCLT 211459Z 2115/2212 22003KT P6SM FEW250
     FM211800 28008KT P6SM FEW250
     FM212000 30010G18KT P6SM FEW050 FEW250
     FM220100 33009KT P6SM FEW250=

Latest METAR

560
SAUS70 KWBC 212000 RRA
MTRCLT
METAR KCLT 211952Z 27010G15KT 10SM SCT065 23/05 A2987 RMK AO2 SLP109
T02330050


USA.gov is the U.S. government's official web portal to all federal, state and local government web resources and services.